createdAt,value
2023-01-07T00:01:41.885Z,6.80
2023-01-07T00:04:12.606Z,6.68
2023-01-07T00:06:41.701Z,6.72
2023-01-07T00:09:12.472Z,5.57
2023-01-07T00:11:40.909Z,6.22
2023-01-07T00:14:09.848Z,6.10
2023-01-07T00:16:37.980Z,6.38
2023-01-07T00:19:10.301Z,6.20
2023-01-07T00:21:36.811Z,5.43
2023-01-07T00:24:06.348Z,5.88
2023-01-07T00:26:38.248Z,5.35
2023-01-07T00:29:06.352Z,5.70
2023-01-07T00:31:35.611Z,5.57
2023-01-07T00:34:02.504Z,5.30
2023-01-07T00:36:31.419Z,5.28
2023-01-07T00:39:18.926Z,4.30
2023-01-07T00:42:04.474Z,4.47
2023-01-07T00:44:31.782Z,5.00
2023-01-07T00:46:59.408Z,4.65
2023-01-07T00:49:26.515Z,4.30
2023-01-07T00:51:53.043Z,4.18
2023-01-07T00:54:19.564Z,4.13
2023-01-07T00:56:46.081Z,4.50
2023-01-07T00:59:12.900Z,3.97
2023-01-07T01:01:39.482Z,4.47
2023-01-07T01:04:08.119Z,3.65
2023-01-07T01:06:35.292Z,3.60
2023-01-07T01:09:02.018Z,3.65
2023-01-07T01:11:28.537Z,3.83
2023-01-07T01:13:55.088Z,3.85
2023-01-07T01:16:21.650Z,3.53
2023-01-07T01:18:48.216Z,3.40
2023-01-07T01:21:15.932Z,3.53
2023-01-07T01:23:43.357Z,3.88
2023-01-07T01:26:15.874Z,3.50
2023-01-07T01:28:43.638Z,3.35
2023-01-07T01:31:10.572Z,3.53
2023-01-07T01:33:37.250Z,3.05
2023-01-07T01:36:05.462Z,3.42
2023-01-07T01:38:32.147Z,2.85
2023-01-07T01:40:58.666Z,3.75
2023-01-07T01:43:33.170Z,2.80
2023-01-07T01:46:36.802Z,3.05
2023-01-07T01:49:16.002Z,2.70
2023-01-07T01:51:49.166Z,2.92
2023-01-07T01:54:18.227Z,3.03
2023-01-07T01:56:48.847Z,3.42
2023-01-07T01:59:20.738Z,2.92
2023-01-07T02:01:47.542Z,2.88
2023-01-07T02:04:19.341Z,2.83
2023-01-07T02:07:10.781Z,2.97
2023-01-07T02:09:37.408Z,2.47
2023-01-07T02:12:42.215Z,2.72
2023-01-07T02:15:13.075Z,2.70
2023-01-07T02:17:57.983Z,2.38
2023-01-07T02:20:46.461Z,2.28
2023-01-07T02:23:21.639Z,2.60
2023-01-07T02:26:25.720Z,2.45
2023-01-07T02:29:22.828Z,2.70
2023-01-07T02:32:05.792Z,2.60
2023-01-07T02:34:44.673Z,2.72
2023-01-07T02:37:47.556Z,2.33
2023-01-07T02:40:20.064Z,2.50
2023-01-07T02:43:10.118Z,2.50
2023-01-07T02:45:49.089Z,2.58
2023-01-07T02:48:18.028Z,2.47
2023-01-07T02:50:44.525Z,2.13
2023-01-07T02:53:16.040Z,2.35
2023-01-07T02:56:04.440Z,2.67
2023-01-07T02:59:00.666Z,2.30
2023-01-07T03:01:45.521Z,2.33
2023-01-07T03:04:44.316Z,2.53
2023-01-07T03:07:20.182Z,2.45
2023-01-07T03:09:58.337Z,2.85
2023-01-07T03:12:38.846Z,2.30
2023-01-07T03:15:21.357Z,2.85
2023-01-07T03:17:53.366Z,2.10
2023-01-07T03:20:23.060Z,2.20
2023-01-07T03:22:50.766Z,2.03
2023-01-07T03:25:20.918Z,2.10
2023-01-07T03:27:48.973Z,2.42
2023-01-07T03:30:18.855Z,2.33
2023-01-07T03:32:58.118Z,1.80
2023-01-07T03:35:26.097Z,2.17
2023-01-07T03:37:53.475Z,2.10
2023-01-07T03:40:20.961Z,2.33
2023-01-07T03:42:49.073Z,2.17
2023-01-07T03:45:18.551Z,2.42
2023-01-07T03:47:50.859Z,1.95
2023-01-07T03:50:18.491Z,2.25
2023-01-07T03:52:45.501Z,2.45
2023-01-07T03:55:11.980Z,1.90
2023-01-07T03:57:38.554Z,2.17
2023-01-07T04:00:07.937Z,1.85
2023-01-07T04:02:34.488Z,1.77
2023-01-07T04:05:01.129Z,1.90
2023-01-07T04:07:27.775Z,2.30
2023-01-07T04:09:54.280Z,2.30
2023-01-07T04:12:20.858Z,1.95
2023-01-07T04:14:47.408Z,2.47
2023-01-07T04:17:13.953Z,1.92
2023-01-07T04:19:40.528Z,1.92
2023-01-07T04:22:08.959Z,2.30
2023-01-07T04:24:35.520Z,2.10
2023-01-07T04:27:02.144Z,2.17
2023-01-07T04:29:28.929Z,2.40
2023-01-07T04:31:55.474Z,2.22
2023-01-07T04:34:22.127Z,2.00
2023-01-07T04:36:48.801Z,1.90
2023-01-07T04:39:15.432Z,2.00
2023-01-07T04:41:42.105Z,2.03
2023-01-07T04:44:08.701Z,2.05
2023-01-07T04:46:35.533Z,2.00
2023-01-07T04:49:02.116Z,2.03
2023-01-07T04:51:28.629Z,2.00
2023-01-07T04:53:57.465Z,1.90
2023-01-07T04:56:24.186Z,1.85
2023-01-07T04:58:50.722Z,2.08
2023-01-07T05:01:17.334Z,1.95
2023-01-07T05:03:43.899Z,2.00
2023-01-07T05:06:10.471Z,1.90
2023-01-07T05:08:37.010Z,2.30
2023-01-07T05:11:05.056Z,2.00
2023-01-07T05:13:32.482Z,2.17
2023-01-07T05:15:59.054Z,2.08
2023-01-07T05:18:25.572Z,2.17
2023-01-07T05:20:52.052Z,2.33
2023-01-07T05:23:18.581Z,2.05
2023-01-07T05:25:45.138Z,2.30
2023-01-07T05:28:12.208Z,1.70
2023-01-07T05:30:39.523Z,1.88
2023-01-07T05:33:07.337Z,1.92
2023-01-07T05:35:34.927Z,3.15
2023-01-07T05:38:01.457Z,1.80
2023-01-07T05:40:27.957Z,1.80
2023-01-07T05:42:54.553Z,2.13
2023-01-07T05:45:21.843Z,2.00
2023-01-07T05:47:48.838Z,1.58
2023-01-07T05:50:15.354Z,1.67
2023-01-07T05:52:41.873Z,1.95
2023-01-07T05:55:08.667Z,1.95
2023-01-07T05:57:35.191Z,1.65
2023-01-07T06:00:01.720Z,1.98
2023-01-07T06:02:28.226Z,1.98
2023-01-07T06:04:54.787Z,2.10
2023-01-07T06:07:21.384Z,1.90
2023-01-07T06:09:47.885Z,2.03
2023-01-07T06:12:14.403Z,2.00
2023-01-07T06:14:40.938Z,1.95
2023-01-07T06:17:07.434Z,2.00
2023-01-07T06:19:33.910Z,1.85
2023-01-07T06:22:00.423Z,1.55
2023-01-07T06:24:26.977Z,1.42
2023-01-07T06:26:53.469Z,1.63
2023-01-07T06:29:19.940Z,1.75
2023-01-07T06:31:46.433Z,1.88
2023-01-07T06:34:12.915Z,2.17
2023-01-07T06:36:39.434Z,1.65
2023-01-07T06:39:05.946Z,1.70
2023-01-07T06:41:32.482Z,1.38
2023-01-07T06:43:58.979Z,1.75
2023-01-07T06:46:25.747Z,1.70
2023-01-07T06:48:52.263Z,1.60
2023-01-07T06:51:18.819Z,1.40
2023-01-07T06:53:45.381Z,1.40
2023-01-07T06:56:11.934Z,1.30
2023-01-07T06:58:38.518Z,1.45
2023-01-07T07:01:07.439Z,1.50
2023-01-07T07:03:34.036Z,1.50
2023-01-07T07:06:00.856Z,1.50
2023-01-07T07:08:27.420Z,1.65
2023-01-07T07:10:54.004Z,1.60
2023-01-07T07:13:20.600Z,1.48
2023-01-07T07:15:47.514Z,1.27
2023-01-07T07:18:14.040Z,1.52
2023-01-07T07:20:40.534Z,1.27
2023-01-07T07:23:07.085Z,1.60
2023-01-07T07:25:33.729Z,1.63
2023-01-07T07:28:00.245Z,1.25
2023-01-07T07:30:45.596Z,1.77
2023-01-07T07:33:15.022Z,1.50
2023-01-07T07:35:42.031Z,1.50
2023-01-07T07:38:08.588Z,1.58
2023-01-07T07:40:35.142Z,1.40
2023-01-07T07:43:11.914Z,1.52
2023-01-07T07:45:40.878Z,1.42
2023-01-07T07:48:12.127Z,1.65
2023-01-07T07:50:38.940Z,1.45
2023-01-07T07:53:09.918Z,1.40
2023-01-07T07:55:38.256Z,1.60
2023-01-07T07:58:05.451Z,1.77
2023-01-07T08:00:32.527Z,1.60
2023-01-07T08:03:00.065Z,1.30
2023-01-07T08:05:27.624Z,1.90
2023-01-07T08:07:54.741Z,1.20
2023-01-07T08:10:21.656Z,1.55
2023-01-07T08:12:49.565Z,1.77
2023-01-07T08:15:16.320Z,1.50
2023-01-07T08:17:42.870Z,1.70
2023-01-07T08:20:10.023Z,1.63
2023-01-07T08:22:36.734Z,1.20
2023-01-07T08:25:03.520Z,1.40
2023-01-07T08:27:30.099Z,1.45
2023-01-07T08:29:57.046Z,1.30
2023-01-07T08:32:24.042Z,1.20
2023-01-07T08:34:50.576Z,1.45
2023-01-07T08:37:17.194Z,1.30
2023-01-07T08:39:43.916Z,1.40
2023-01-07T08:42:10.500Z,1.35
2023-01-07T08:44:37.079Z,1.13
2023-01-07T08:47:03.670Z,1.73
2023-01-07T08:49:30.235Z,1.15
2023-01-07T08:51:56.767Z,1.52
2023-01-07T08:54:23.250Z,1.95
2023-01-07T08:56:49.800Z,1.10
2023-01-07T08:59:16.323Z,1.33
2023-01-07T09:01:42.930Z,1.23
2023-01-07T09:04:09.594Z,1.33
2023-01-07T09:06:36.113Z,1.27
2023-01-07T09:09:02.660Z,1.25
2023-01-07T09:11:29.328Z,1.58
2023-01-07T09:13:55.881Z,1.25
2023-01-07T09:16:22.541Z,1.08
2023-01-07T09:18:50.310Z,1.35
2023-01-07T09:21:16.871Z,1.05
2023-01-07T09:23:43.394Z,1.30
2023-01-07T09:26:09.977Z,1.20
2023-01-07T09:28:36.537Z,1.40
2023-01-07T09:31:04.187Z,1.20
2023-01-07T09:33:31.150Z,1.05
2023-01-07T09:35:57.696Z,1.20
2023-01-07T09:38:24.213Z,1.60
2023-01-07T09:40:51.366Z,1.00
2023-01-07T09:44:00.094Z,1.33
2023-01-07T09:46:28.439Z,1.05
2023-01-07T09:49:01.208Z,1.30
2023-01-07T09:51:39.100Z,1.35
2023-01-07T09:54:18.205Z,1.15
2023-01-07T09:56:46.386Z,1.50
2023-01-07T09:59:13.574Z,1.48
2023-01-07T10:01:46.238Z,1.45
2023-01-07T10:04:18.700Z,0.90
2023-01-07T10:07:05.406Z,0.90
2023-01-07T10:09:53.820Z,1.27
2023-01-07T10:12:36.694Z,0.93
2023-01-07T10:15:41.849Z,0.80
2023-01-07T10:18:32.233Z,1.30
2023-01-07T10:21:23.790Z,0.90
2023-01-07T10:24:04.381Z,1.02
2023-01-07T10:26:41.330Z,1.20
2023-01-07T10:29:32.629Z,1.00
2023-01-07T10:32:07.375Z,1.00
2023-01-07T10:34:43.789Z,1.30
2023-01-07T10:37:33.270Z,1.17
2023-01-07T10:40:18.382Z,0.90
2023-01-07T10:42:56.969Z,1.35
2023-01-07T10:45:37.356Z,0.90
2023-01-07T10:48:04.122Z,1.00
2023-01-07T10:50:46.843Z,1.00
2023-01-07T10:53:31.382Z,1.00
2023-01-07T10:56:16.526Z,1.58
2023-01-07T10:58:45.585Z,1.08
2023-01-07T11:01:38.316Z,0.82
2023-01-07T11:04:11.342Z,0.80
2023-01-07T11:07:04.502Z,0.90
2023-01-07T11:09:35.989Z,1.02
2023-01-07T11:12:17.536Z,1.13
2023-01-07T11:14:45.678Z,1.10
2023-01-07T11:17:34.949Z,0.90
2023-01-07T11:20:01.906Z,0.98
2023-01-07T11:22:33.526Z,1.10
2023-01-07T11:25:02.549Z,0.93
2023-01-07T11:27:33.379Z,1.10
2023-01-07T11:30:27.659Z,1.00
2023-01-07T11:35:30.348Z,0.95
2023-01-07T11:37:59.293Z,1.23
2023-01-07T11:40:29.275Z,0.90
2023-01-07T11:42:57.392Z,0.98
2023-01-07T11:45:26.990Z,1.00
2023-01-07T11:48:01.285Z,1.25
2023-01-07T11:50:30.201Z,0.82
2023-01-07T11:53:02.938Z,0.90
2023-01-07T11:55:30.099Z,0.93
2023-01-07T11:58:29.526Z,0.70
2023-01-07T12:00:44.690Z,1.05
2023-01-07T12:03:14.162Z,1.08
2023-01-07T12:05:45.031Z,0.95
2023-01-07T12:08:23.190Z,0.90
2023-01-07T12:10:58.257Z,0.80
2023-01-07T12:13:27.482Z,0.70
2023-01-07T12:15:57.629Z,1.00
2023-01-07T12:18:33.318Z,0.88
2023-01-07T12:21:22.559Z,0.80
2023-01-07T12:24:18.757Z,0.90
2023-01-07T12:26:51.312Z,0.80
2023-01-07T12:29:36.432Z,0.98
2023-01-07T12:32:31.090Z,0.80
2023-01-07T12:35:14.943Z,1.00
2023-01-07T12:37:48.321Z,0.80
2023-01-07T12:40:16.240Z,0.80
2023-01-07T12:42:50.961Z,0.88
2023-01-07T12:45:27.233Z,0.93
2023-01-07T12:48:07.744Z,1.02
2023-01-07T12:50:57.442Z,0.88
2023-01-07T12:53:32.660Z,1.45
2023-01-07T12:56:20.106Z,0.80
2023-01-07T12:58:55.697Z,0.80
2023-01-07T13:01:34.277Z,0.88
2023-01-07T13:04:16.220Z,1.05
2023-01-07T13:06:58.765Z,1.08
2023-01-07T13:09:37.901Z,1.00
2023-01-07T13:12:46.153Z,1.00
2023-01-07T13:15:33.924Z,1.00
2023-01-07T13:18:17.898Z,1.08
2023-01-07T13:20:53.387Z,1.17
2023-01-07T13:23:31.320Z,1.10
2023-01-07T13:26:09.696Z,1.00
2023-01-07T13:29:04.088Z,1.10
2023-01-07T13:31:59.994Z,1.20
2023-01-07T13:34:44.845Z,1.10
2023-01-07T13:37:40.692Z,1.17
2023-01-07T13:40:41.007Z,1.20
2023-01-07T13:43:40.210Z,1.08
2023-01-07T13:46:20.054Z,1.20
2023-01-07T13:48:52.078Z,1.15
2023-01-07T13:51:31.841Z,1.20
2023-01-07T13:53:58.809Z,1.38
2023-01-07T13:56:25.912Z,1.23
2023-01-07T13:58:55.335Z,1.20
2023-01-07T14:01:22.786Z,1.08
2023-01-07T14:03:50.390Z,1.20
2023-01-07T14:06:23.874Z,1.00
2023-01-07T14:08:59.203Z,1.23
2023-01-07T14:11:36.286Z,1.13
2023-01-07T14:14:14.717Z,0.98
2023-01-07T14:17:13.038Z,1.20
2023-01-07T14:20:10.648Z,1.00
2023-01-07T14:22:55.510Z,0.90
2023-01-07T14:25:59.112Z,1.25
2023-01-07T14:28:44.325Z,1.00
2023-01-07T14:31:40.447Z,1.10
2023-01-07T14:34:20.816Z,0.90
2023-01-07T14:37:02.411Z,1.00
2023-01-07T14:39:40.920Z,0.93
2023-01-07T14:42:16.838Z,0.90
2023-01-07T14:44:43.647Z,1.08
2023-01-07T14:47:11.964Z,1.02
2023-01-07T14:50:00.800Z,0.93
2023-01-07T14:53:12.319Z,1.20
2023-01-07T14:56:13.374Z,0.98
2023-01-07T14:58:45.556Z,1.27
2023-01-07T15:01:51.916Z,1.10
2023-01-07T15:04:27.650Z,1.48
2023-01-07T15:06:59.533Z,1.27
2023-01-07T15:09:57.902Z,1.17
2023-01-07T15:12:47.509Z,1.20
2023-01-07T15:15:39.450Z,1.20
2023-01-07T15:18:13.290Z,1.38
2023-01-07T15:20:52.076Z,1.10
2023-01-07T15:23:32.343Z,1.20
2023-01-07T15:26:23.925Z,1.08
2023-01-07T15:29:14.352Z,1.20
2023-01-07T15:31:58.206Z,1.00
2023-01-07T15:34:31.924Z,1.00
2023-01-07T15:39:31.970Z,1.10
2023-01-07T15:41:59.454Z,1.00
2023-01-07T15:44:34.290Z,1.00
2023-01-07T15:47:01.003Z,1.15
2023-01-07T15:49:29.516Z,1.13
2023-01-07T15:51:58.953Z,1.40
2023-01-07T15:54:39.471Z,1.02
2023-01-07T15:57:14.797Z,1.20
2023-01-07T15:59:50.765Z,1.38
2023-01-07T16:02:37.634Z,1.08
2023-01-07T16:05:06.200Z,1.25
2023-01-07T16:07:42.066Z,1.23
2023-01-07T16:10:22.694Z,1.10
2023-01-07T16:12:52.257Z,1.23
2023-01-07T16:15:24.891Z,1.33
2023-01-07T16:18:03.572Z,1.42
2023-01-07T16:20:33.629Z,0.98
2023-01-07T16:23:08.907Z,1.00
2023-01-07T16:25:39.223Z,1.27
2023-01-07T16:28:06.775Z,1.15
2023-01-07T16:30:40.110Z,1.38
2023-01-07T16:33:06.934Z,1.20
2023-01-07T16:35:36.655Z,1.48
2023-01-07T16:38:03.705Z,1.35
2023-01-07T16:40:38.257Z,1.58
2023-01-07T16:43:25.436Z,1.20
2023-01-07T16:46:17.480Z,1.13
2023-01-07T16:48:44.500Z,1.35
2023-01-07T16:51:38.473Z,1.45
2023-01-07T16:54:26.539Z,1.38
2023-01-07T16:57:26.075Z,1.75
2023-01-07T16:59:55.520Z,1.38
2023-01-07T17:02:41.931Z,1.58
2023-01-07T17:05:13.899Z,1.27
2023-01-07T17:07:41.026Z,1.23
2023-01-07T17:10:16.993Z,1.27
2023-01-07T17:13:02.452Z,1.38
2023-01-07T17:15:31.758Z,1.48
2023-01-07T17:18:14.435Z,1.63
2023-01-07T17:20:52.818Z,1.20
2023-01-07T17:23:25.814Z,1.60
2023-01-07T17:26:04.535Z,1.90
2023-01-07T17:28:33.753Z,1.80
2023-01-07T17:31:00.769Z,1.33
2023-01-07T17:33:27.360Z,1.48
2023-01-07T17:35:57.821Z,1.60
2023-01-07T17:38:24.467Z,1.58
2023-01-07T17:40:52.023Z,1.52
2023-01-07T17:43:33.556Z,1.70
2023-01-07T17:46:20.305Z,1.50
2023-01-07T17:48:46.867Z,1.60
2023-01-07T17:51:14.011Z,1.50
2023-01-07T17:53:44.573Z,1.65
2023-01-07T17:56:11.242Z,2.00
2023-01-07T17:58:41.181Z,1.98
2023-01-07T18:01:11.419Z,1.73
2023-01-07T18:03:38.190Z,1.50
2023-01-07T18:06:17.312Z,2.25
2023-01-07T18:08:45.645Z,1.70
2023-01-07T18:11:33.352Z,2.08
2023-01-07T18:14:00.058Z,1.70
2023-01-07T18:16:27.448Z,2.28
2023-01-07T18:18:54.577Z,1.55
2023-01-07T18:21:21.319Z,2.10
2023-01-07T18:23:47.951Z,2.10
2023-01-07T18:26:14.569Z,1.58
2023-01-07T18:28:41.706Z,1.92
2023-01-07T18:31:08.746Z,2.15
2023-01-07T18:33:35.511Z,2.13
2023-01-07T18:36:02.065Z,1.65
2023-01-07T18:38:28.609Z,2.05
2023-01-07T18:40:55.827Z,1.70
2023-01-07T18:43:22.326Z,2.05
2023-01-07T18:45:49.101Z,1.90
2023-01-07T18:48:19.385Z,1.90
2023-01-07T18:50:48.237Z,1.98
2023-01-07T18:53:16.416Z,2.03
2023-01-07T18:55:44.099Z,2.20
2023-01-07T18:58:13.370Z,1.80
2023-01-07T19:00:40.923Z,1.88
2023-01-07T19:03:07.515Z,2.05
2023-01-07T19:05:34.028Z,1.92
2023-01-07T19:08:00.570Z,1.90
2023-01-07T19:10:27.548Z,1.90
2023-01-07T19:12:54.097Z,1.83
2023-01-07T19:15:20.639Z,2.20
2023-01-07T19:17:47.174Z,2.08
2023-01-07T19:20:15.287Z,2.20
2023-01-07T19:22:42.113Z,2.00
2023-01-07T19:25:09.473Z,1.83
2023-01-07T19:27:36.019Z,1.75
2023-01-07T19:30:02.602Z,2.45
2023-01-07T19:32:30.261Z,1.70
2023-01-07T19:34:56.808Z,2.28
2023-01-07T19:37:23.308Z,1.95
2023-01-07T19:39:49.808Z,2.20
2023-01-07T19:42:16.339Z,2.20
2023-01-07T19:44:42.935Z,2.40
2023-01-07T19:47:09.560Z,2.78
2023-01-07T19:49:36.276Z,2.40
2023-01-07T19:52:02.870Z,2.03
2023-01-07T19:54:29.383Z,2.20
2023-01-07T19:56:55.917Z,2.38
2023-01-07T19:59:22.677Z,2.25
2023-01-07T20:01:49.956Z,2.05
2023-01-07T20:04:16.864Z,2.65
2023-01-07T20:06:43.451Z,2.28
2023-01-07T20:09:13.171Z,2.13
2023-01-07T20:11:40.537Z,2.25
2023-01-07T20:14:07.735Z,2.20
2023-01-07T20:16:36.283Z,2.28
2023-01-07T20:19:03.043Z,2.95
2023-01-07T20:21:29.587Z,2.58
2023-01-07T20:23:56.092Z,2.55
2023-01-07T20:26:25.662Z,2.47
2023-01-07T20:28:53.484Z,2.63
2023-01-07T20:31:21.590Z,2.70
2023-01-07T20:33:50.354Z,2.22
2023-01-07T20:36:19.314Z,2.22
2023-01-07T20:38:46.943Z,3.00
2023-01-07T20:41:16.485Z,3.10
2023-01-07T20:43:43.340Z,2.83
2023-01-07T20:46:11.014Z,2.50
2023-01-07T20:48:37.877Z,2.80
2023-01-07T20:51:08.708Z,2.33
2023-01-07T20:53:36.812Z,2.75
2023-01-07T20:56:04.081Z,2.75
2023-01-07T20:58:32.047Z,2.58
2023-01-07T21:01:01.471Z,2.80
2023-01-07T21:03:28.081Z,3.05
2023-01-07T21:05:57.837Z,2.58
2023-01-07T21:08:25.252Z,2.63
2023-01-07T21:10:52.454Z,2.83
2023-01-07T21:13:19.895Z,2.65
2023-01-07T21:15:46.540Z,2.72
2023-01-07T21:18:13.121Z,2.40
2023-01-07T21:20:40.563Z,2.22
2023-01-07T21:23:07.784Z,2.75
2023-01-07T21:25:34.316Z,3.28
2023-01-07T21:28:01.405Z,3.20
2023-01-07T21:30:28.502Z,2.45
2023-01-07T21:32:55.997Z,2.90
2023-01-07T21:35:22.734Z,2.72
2023-01-07T21:37:53.142Z,2.65
2023-01-07T21:40:19.723Z,2.53
2023-01-07T21:42:46.222Z,2.88
2023-01-07T21:45:12.843Z,3.00
2023-01-07T21:47:39.364Z,2.38
2023-01-07T21:50:06.398Z,2.67
2023-01-07T21:52:34.596Z,2.13
2023-01-07T21:55:01.303Z,2.45
2023-01-07T21:57:27.825Z,2.35
2023-01-07T21:59:54.318Z,2.28
2023-01-07T22:02:20.952Z,2.83
2023-01-07T22:04:48.192Z,2.40
2023-01-07T22:07:19.320Z,2.60
2023-01-07T22:09:45.830Z,2.08
2023-01-07T22:12:13.613Z,2.55
2023-01-07T22:14:40.231Z,2.30
2023-01-07T22:17:07.560Z,2.03
2023-01-07T22:19:34.162Z,2.42
2023-01-07T22:22:01.406Z,2.40
2023-01-07T22:24:28.206Z,2.28
2023-01-07T22:26:55.269Z,2.58
2023-01-07T22:29:22.087Z,2.50
2023-01-07T22:31:50.989Z,2.60
2023-01-07T22:34:17.654Z,2.30
2023-01-07T22:36:52.240Z,2.63
2023-01-07T22:39:23.309Z,1.88
2023-01-07T22:41:55.377Z,2.33
2023-01-07T22:44:33.498Z,2.45
2023-01-07T22:47:01.273Z,2.13
2023-01-07T22:49:30.156Z,2.38
2023-01-07T22:51:57.000Z,2.20
2023-01-07T22:54:25.492Z,2.50
2023-01-07T22:56:52.303Z,2.22
2023-01-07T22:59:18.840Z,2.28
2023-01-07T23:01:45.397Z,2.42
2023-01-07T23:04:12.071Z,2.22
2023-01-07T23:06:38.709Z,1.90
2023-01-07T23:09:05.291Z,2.13
2023-01-07T23:11:47.568Z,1.80
2023-01-07T23:14:15.591Z,1.90
2023-01-07T23:16:42.204Z,2.13
2023-01-07T23:19:08.741Z,2.10
2023-01-07T23:21:37.598Z,2.30
2023-01-07T23:24:04.263Z,2.17
2023-01-07T23:26:30.840Z,2.15
2023-01-07T23:28:58.109Z,2.38
2023-01-07T23:31:24.786Z,2.17
2023-01-07T23:33:51.364Z,2.20
2023-01-07T23:36:17.888Z,2.60
2023-01-07T23:38:44.405Z,1.52
2023-01-07T23:41:12.116Z,1.77
2023-01-07T23:43:38.805Z,2.08
2023-01-07T23:46:07.352Z,1.88
2023-01-07T23:48:36.821Z,1.90
2023-01-07T23:51:06.485Z,1.80
2023-01-07T23:53:33.802Z,1.70
2023-01-07T23:56:00.460Z,1.45
2023-01-07T23:58:27.751Z,1.85
